sensor_id;sensor_type;location;lat;lon;timestamp;temperature;humidity
1594;DHT22;790;47.000;16.084;2023-07-02T00:02:10;18.10;99.90
1594;DHT22;790;47.000;16.084;2023-07-02T00:04:37;18.10;99.90
1594;DHT22;790;47.000;16.084;2023-07-02T00:07:07;18.20;99.90
1594;DHT22;790;47.000;16.084;2023-07-02T00:09:34;18.20;99.90
1594;DHT22;790;47.000;16.084;2023-07-02T00:12:01;18.20;99.90
1594;DHT22;790;47.000;16.084;2023-07-02T00:14:28;18.20;99.90
1594;DHT22;790;47.000;16.084;2023-07-02T00:16:55;18.20;99.90
1594;DHT22;790;47.000;16.084;2023-07-02T00:19:24;18.20;99.90
1594;DHT22;790;47.000;16.084;2023-07-02T00:21:51;18.20;99.90
1594;DHT22;790;47.000;16.084;2023-07-02T00:24:19;18.20;99.90
1594;DHT22;790;47.000;16.084;2023-07-02T00:26:46;18.20;99.90
1594;DHT22;790;47.000;16.084;2023-07-02T00:29:13;18.20;99.90
1594;DHT22;790;47.000;16.084;2023-07-02T00:31:40;18.20;99.90
1594;DHT22;790;47.000;16.084;2023-07-02T00:34:07;18.20;99.90
1594;DHT22;790;47.000;16.084;2023-07-02T00:36:36;18.20;99.90
1594;DHT22;790;47.000;16.084;2023-07-02T00:39:03;18.20;99.90
1594;DHT22;790;47.000;16.084;2023-07-02T00:41:30;18.20;99.90
1594;DHT22;790;47.000;16.084;2023-07-02T00:43:57;18.20;99.90
1594;DHT22;790;47.000;16.084;2023-07-02T00:46:25;18.20;99.90
1594;DHT22;790;47.000;16.084;2023-07-02T00:48:53;18.20;99.90
1594;DHT22;790;47.000;16.084;2023-07-02T00:51:22;18.10;99.90
1594;DHT22;790;47.000;16.084;2023-07-02T00:53:53;18.20;99.90
1594;DHT22;790;47.000;16.084;2023-07-02T00:56:21;18.20;99.90
1594;DHT22;790;47.000;16.084;2023-07-02T00:58:51;18.20;99.90
1594;DHT22;790;47.000;16.084;2023-07-02T01:01:20;18.30;99.90
1594;DHT22;790;47.000;16.084;2023-07-02T01:03:52;18.30;99.90
1594;DHT22;790;47.000;16.084;2023-07-02T01:06:23;18.30;99.90
1594;DHT22;790;47.000;16.084;2023-07-02T01:08:55;18.20;99.90
1594;DHT22;790;47.000;16.084;2023-07-02T01:11:25;18.20;99.90
1594;DHT22;790;47.000;16.084;2023-07-02T01:13:58;18.20;99.90
1594;DHT22;790;47.000;16.084;2023-07-02T01:16:27;18.30;99.90
1594;DHT22;790;47.000;16.084;2023-07-02T01:18:57;18.30;99.90
1594;DHT22;790;47.000;16.084;2023-07-02T01:21:26;18.30;99.90
1594;DHT22;790;47.000;16.084;2023-07-02T01:23:54;18.30;99.90
1594;DHT22;790;47.000;16.084;2023-07-02T01:26:21;18.30;99.90
1594;DHT22;790;47.000;16.084;2023-07-02T01:28:48;18.30;99.90
1594;DHT22;790;47.000;16.084;2023-07-02T01:31:16;18.30;99.90
1594;DHT22;790;47.000;16.084;2023-07-02T01:33:43;18.30;99.90
1594;DHT22;790;47.000;16.084;2023-07-02T01:36:10;18.30;99.90
1594;DHT22;790;47.000;16.084;2023-07-02T01:38:40;18.30;99.90
1594;DHT22;790;47.000;16.084;2023-07-02T01:41:07;18.30;99.90
1594;DHT22;790;47.000;16.084;2023-07-02T01:43:34;18.30;99.90
1594;DHT22;790;47.000;16.084;2023-07-02T01:46:01;18.30;99.90
1594;DHT22;790;47.000;16.084;2023-07-02T01:48:30;18.30;99.90
1594;DHT22;790;47.000;16.084;2023-07-02T01:50:57;18.30;99.90
1594;DHT22;790;47.000;16.084;2023-07-02T01:53:24;18.30;99.90
1594;DHT22;790;47.000;16.084;2023-07-02T01:55:52;18.30;99.90
1594;DHT22;790;47.000;16.084;2023-07-02T01:58:19;18.30;99.90
1594;DHT22;790;47.000;16.084;2023-07-02T02:00:47;18.30;99.90
1594;DHT22;790;47.000;16.084;2023-07-02T02:03:15;18.40;99.90
1594;DHT22;790;47.000;16.084;2023-07-02T02:05:42;18.40;99.90
1594;DHT22;790;47.000;16.084;2023-07-02T02:08:09;18.40;99.90
1594;DHT22;790;47.000;16.084;2023-07-02T02:10:36;18.40;99.90
1594;DHT22;790;47.000;16.084;2023-07-02T02:13:07;18.30;99.90
1594;DHT22;790;47.000;16.084;2023-07-02T02:15:34;18.30;99.90
1594;DHT22;790;47.000;16.084;2023-07-02T02:18:02;18.30;99.90
1594;DHT22;790;47.000;16.084;2023-07-02T02:20:30;18.30;99.90
1594;DHT22;790;47.000;16.084;2023-07-02T02:22:58;18.30;99.90
1594;DHT22;790;47.000;16.084;2023-07-02T02:25:25;18.30;99.90
1594;DHT22;790;47.000;16.084;2023-07-02T02:27:52;18.30;99.90
1594;DHT22;790;47.000;16.084;2023-07-02T02:30:22;18.40;99.90
1594;DHT22;790;47.000;16.084;2023-07-02T02:32:49;18.40;99.90
1594;DHT22;790;47.000;16.084;2023-07-02T02:35:17;18.20;99.90
1594;DHT22;790;47.000;16.084;2023-07-02T02:37:44;18.20;99.90
1594;DHT22;790;47.000;16.084;2023-07-02T02:40:12;18.20;99.90
1594;DHT22;790;47.000;16.084;2023-07-02T02:42:39;18.20;99.90
1594;DHT22;790;47.000;16.084;2023-07-02T02:45:07;18.10;99.90
1594;DHT22;790;47.000;16.084;2023-07-02T02:47:36;18.10;99.90
1594;DHT22;790;47.000;16.084;2023-07-02T02:50:03;18.10;99.90
1594;DHT22;790;47.000;16.084;2023-07-02T02:52:31;18.10;99.90
1594;DHT22;790;47.000;16.084;2023-07-02T02:54:58;18.00;99.90
1594;DHT22;790;47.000;16.084;2023-07-02T02:57:26;18.00;99.90
1594;DHT22;790;47.000;16.084;2023-07-02T02:59:53;18.00;99.90
1594;DHT22;790;47.000;16.084;2023-07-02T03:02:20;18.00;99.90
1594;DHT22;790;47.000;16.084;2023-07-02T03:04:48;18.00;99.90
1594;DHT22;790;47.000;16.084;2023-07-02T03:07:16;18.00;99.90
1594;DHT22;790;47.000;16.084;2023-07-02T03:09:43;18.10;99.90
1594;DHT22;790;47.000;16.084;2023-07-02T03:12:10;18.00;99.90
1594;DHT22;790;47.000;16.084;2023-07-02T03:14:37;18.00;99.90
1594;DHT22;790;47.000;16.084;2023-07-02T03:17:05;18.00;99.90
1594;DHT22;790;47.000;16.084;2023-07-02T03:19:32;17.90;99.90
1594;DHT22;790;47.000;16.084;2023-07-02T03:22:01;17.90;99.90
1594;DHT22;790;47.000;16.084;2023-07-02T03:24:28;17.90;99.90
1594;DHT22;790;47.000;16.084;2023-07-02T03:26:55;17.80;99.90
1594;DHT22;790;47.000;16.084;2023-07-02T03:29:22;17.90;99.90
1594;DHT22;790;47.000;16.084;2023-07-02T03:31:49;17.90;99.90
1594;DHT22;790;47.000;16.084;2023-07-02T03:34:16;17.90;99.90
1594;DHT22;790;47.000;16.084;2023-07-02T03:36:44;17.90;99.90
1594;DHT22;790;47.000;16.084;2023-07-02T03:39:12;17.80;99.90
1594;DHT22;790;47.000;16.084;2023-07-02T03:41:40;17.90;99.90
1594;DHT22;790;47.000;16.084;2023-07-02T03:44:08;17.90;99.90
1594;DHT22;790;47.000;16.084;2023-07-02T03:46:37;17.80;99.90
1594;DHT22;790;47.000;16.084;2023-07-02T03:49:04;17.80;99.90
1594;DHT22;790;47.000;16.084;2023-07-02T03:51:32;17.80;99.90
1594;DHT22;790;47.000;16.084;2023-07-02T03:53:59;17.90;99.90
1594;DHT22;790;47.000;16.084;2023-07-02T03:56:28;17.90;99.90
1594;DHT22;790;47.000;16.084;2023-07-02T03:58:55;17.90;99.90
1594;DHT22;790;47.000;16.084;2023-07-02T04:01:22;17.90;99.90
1594;DHT22;790;47.000;16.084;2023-07-02T04:03:50;17.90;99.90
1594;DHT22;790;47.000;16.084;2023-07-02T04:06:18;17.90;99.90
1594;DHT22;790;47.000;16.084;2023-07-02T04:08:45;17.90;99.90
1594;DHT22;790;47.000;16.084;2023-07-02T04:11:12;17.90;99.90
1594;DHT22;790;47.000;16.084;2023-07-02T04:13:41;17.90;99.90
1594;DHT22;790;47.000;16.084;2023-07-02T04:16:08;17.80;99.90
1594;DHT22;790;47.000;16.084;2023-07-02T04:18:35;17.90;99.90
1594;DHT22;790;47.000;16.084;2023-07-02T04:21:03;17.90;99.90
1594;DHT22;790;47.000;16.084;2023-07-02T04:23:30;17.90;99.90
1594;DHT22;790;47.000;16.084;2023-07-02T04:25:58;18.00;99.90
1594;DHT22;790;47.000;16.084;2023-07-02T04:28:25;18.00;99.90
1594;DHT22;790;47.000;16.084;2023-07-02T04:30:54;18.00;99.90
1594;DHT22;790;47.000;16.084;2023-07-02T04:33:22;18.00;99.90
1594;DHT22;790;47.000;16.084;2023-07-02T04:35:49;18.10;99.90
1594;DHT22;790;47.000;16.084;2023-07-02T04:38:16;18.20;99.90
1594;DHT22;790;47.000;16.084;2023-07-02T04:40:44;18.20;99.90
1594;DHT22;790;47.000;16.084;2023-07-02T04:43:11;18.20;99.90
1594;DHT22;790;47.000;16.084;2023-07-02T04:45:38;18.30;99.90
1594;DHT22;790;47.000;16.084;2023-07-02T04:48:08;18.30;99.90
1594;DHT22;790;47.000;16.084;2023-07-02T04:50:35;18.40;99.90
1594;DHT22;790;47.000;16.084;2023-07-02T04:53:02;18.50;99.90
1594;DHT22;790;47.000;16.084;2023-07-02T04:55:30;18.50;99.90
1594;DHT22;790;47.000;16.084;2023-07-02T04:57:57;18.60;99.90
1594;DHT22;790;47.000;16.084;2023-07-02T05:00:24;18.70;99.90
1594;DHT22;790;47.000;16.084;2023-07-02T05:02:51;18.70;99.90
1594;DHT22;790;47.000;16.084;2023-07-02T05:05:20;18.70;99.90
1594;DHT22;790;47.000;16.084;2023-07-02T05:07:47;18.80;99.90
1594;DHT22;790;47.000;16.084;2023-07-02T05:10:15;18.90;99.90
1594;DHT22;790;47.000;16.084;2023-07-02T05:12:42;19.00;99.90
1594;DHT22;790;47.000;16.084;2023-07-02T05:15:10;19.00;99.90
1594;DHT22;790;47.000;16.084;2023-07-02T05:17:37;19.10;99.90
1594;DHT22;790;47.000;16.084;2023-07-02T05:20:06;19.10;99.90
1594;DHT22;790;47.000;16.084;2023-07-02T05:22:35;19.10;99.90
1594;DHT22;790;47.000;16.084;2023-07-02T05:25:03;19.10;99.90
1594;DHT22;790;47.000;16.084;2023-07-02T05:27:30;19.20;99.90
1594;DHT22;790;47.000;16.084;2023-07-02T05:29:57;19.10;99.90
1594;DHT22;790;47.000;16.084;2023-07-02T05:32:25;19.10;99.90
1594;DHT22;790;47.000;16.084;2023-07-02T05:34:52;19.10;99.90
1594;DHT22;790;47.000;16.084;2023-07-02T05:37:19;19.10;99.90
1594;DHT22;790;47.000;16.084;2023-07-02T05:39:47;19.20;99.90
1594;DHT22;790;47.000;16.084;2023-07-02T05:42:15;19.20;99.90
1594;DHT22;790;47.000;16.084;2023-07-02T05:44:43;19.20;99.90
1594;DHT22;790;47.000;16.084;2023-07-02T05:47:10;19.30;99.90
1594;DHT22;790;47.000;16.084;2023-07-02T05:49:38;19.20;99.90
1594;DHT22;790;47.000;16.084;2023-07-02T05:52:06;19.20;99.90
1594;DHT22;790;47.000;16.084;2023-07-02T05:54:33;19.30;99.90
1594;DHT22;790;47.000;16.084;2023-07-02T05:57:03;19.40;99.90
1594;DHT22;790;47.000;16.084;2023-07-02T05:59:33;19.50;99.90
1594;DHT22;790;47.000;16.084;2023-07-02T06:02:02;19.50;99.90
1594;DHT22;790;47.000;16.084;2023-07-02T06:04:30;19.60;99.90
1594;DHT22;790;47.000;16.084;2023-07-02T06:06:59;19.70;99.90
1594;DHT22;790;47.000;16.084;2023-07-02T06:09:28;19.90;99.90
1594;DHT22;790;47.000;16.084;2023-07-02T06:11:57;20.00;99.90
1594;DHT22;790;47.000;16.084;2023-07-02T06:14:32;20.10;99.90
1594;DHT22;790;47.000;16.084;2023-07-02T06:16:59;20.20;99.90
1594;DHT22;790;47.000;16.084;2023-07-02T06:19:29;20.40;99.90
1594;DHT22;790;47.000;16.084;2023-07-02T06:21:56;20.50;99.90
1594;DHT22;790;47.000;16.084;2023-07-02T06:24:25;20.50;99.90
1594;DHT22;790;47.000;16.084;2023-07-02T06:26:53;20.50;99.90
1594;DHT22;790;47.000;16.084;2023-07-02T06:29:22;20.50;99.90
1594;DHT22;790;47.000;16.084;2023-07-02T06:31:51;20.60;99.90
1594;DHT22;790;47.000;16.084;2023-07-02T06:34:20;20.60;99.90
1594;DHT22;790;47.000;16.084;2023-07-02T06:36:48;20.60;99.90
1594;DHT22;790;47.000;16.084;2023-07-02T06:39:15;20.60;99.90
1594;DHT22;790;47.000;16.084;2023-07-02T06:41:43;20.60;99.90
1594;DHT22;790;47.000;16.084;2023-07-02T06:44:11;20.50;99.90
1594;DHT22;790;47.000;16.084;2023-07-02T06:46:39;20.50;99.90
1594;DHT22;790;47.000;16.084;2023-07-02T06:49:15;20.60;99.90
1594;DHT22;790;47.000;16.084;2023-07-02T06:51:42;20.60;99.90
1594;DHT22;790;47.000;16.084;2023-07-02T06:54:10;20.60;99.90
1594;DHT22;790;47.000;16.084;2023-07-02T06:56:40;20.60;99.90
1594;DHT22;790;47.000;16.084;2023-07-02T06:59:07;20.60;99.90
1594;DHT22;790;47.000;16.084;2023-07-02T07:01:34;20.70;99.90
1594;DHT22;790;47.000;16.084;2023-07-02T07:04:02;20.80;99.90
1594;DHT22;790;47.000;16.084;2023-07-02T07:06:32;20.80;99.90
1594;DHT22;790;47.000;16.084;2023-07-02T07:09:00;21.00;99.90
1594;DHT22;790;47.000;16.084;2023-07-02T07:11:27;21.00;99.90
1594;DHT22;790;47.000;16.084;2023-07-02T07:13:54;21.10;99.90
1594;DHT22;790;47.000;16.084;2023-07-02T07:16:21;21.20;99.90
1594;DHT22;790;47.000;16.084;2023-07-02T07:18:49;21.30;99.90
1594;DHT22;790;47.000;16.084;2023-07-02T07:21:16;21.40;99.90
1594;DHT22;790;47.000;16.084;2023-07-02T07:23:45;21.40;99.90
1594;DHT22;790;47.000;16.084;2023-07-02T07:26:12;21.40;99.90
1594;DHT22;790;47.000;16.084;2023-07-02T07:28:39;21.50;99.90
1594;DHT22;790;47.000;16.084;2023-07-02T07:31:07;21.60;99.90
1594;DHT22;790;47.000;16.084;2023-07-02T07:33:34;21.70;99.90
1594;DHT22;790;47.000;16.084;2023-07-02T07:36:01;21.90;99.90
1594;DHT22;790;47.000;16.084;2023-07-02T07:38:28;22.00;99.90
1594;DHT22;790;47.000;16.084;2023-07-02T07:40:57;22.10;99.90
1594;DHT22;790;47.000;16.084;2023-07-02T07:43:24;22.30;99.90
1594;DHT22;790;47.000;16.084;2023-07-02T07:45:51;22.40;99.90
1594;DHT22;790;47.000;16.084;2023-07-02T07:48:18;22.50;99.90
1594;DHT22;790;47.000;16.084;2023-07-02T07:50:47;22.60;99.90
1594;DHT22;790;47.000;16.084;2023-07-02T07:53:14;22.60;99.90
1594;DHT22;790;47.000;16.084;2023-07-02T07:55:41;22.60;99.90
1594;DHT22;790;47.000;16.084;2023-07-02T07:58:10;22.60;99.90
1594;DHT22;790;47.000;16.084;2023-07-02T08:00:40;22.60;99.90
1594;DHT22;790;47.000;16.084;2023-07-02T08:03:09;22.60;99.90
1594;DHT22;790;47.000;16.084;2023-07-02T08:05:36;22.70;99.90
1594;DHT22;790;47.000;16.084;2023-07-02T08:08:04;22.80;99.90
1594;DHT22;790;47.000;16.084;2023-07-02T08:10:31;23.00;99.90
1594;DHT22;790;47.000;16.084;2023-07-02T08:12:58;23.10;99.90
1594;DHT22;790;47.000;16.084;2023-07-02T08:15:27;23.10;99.90
1594;DHT22;790;47.000;16.084;2023-07-02T08:17:55;23.10;99.90
1594;DHT22;790;47.000;16.084;2023-07-02T08:20:24;23.20;99.90
1594;DHT22;790;47.000;16.084;2023-07-02T08:22:51;23.40;99.90
1594;DHT22;790;47.000;16.084;2023-07-02T08:25:18;23.50;99.90
1594;DHT22;790;47.000;16.084;2023-07-02T08:27:47;23.60;99.90
1594;DHT22;790;47.000;16.084;2023-07-02T08:30:14;23.80;99.90
1594;DHT22;790;47.000;16.084;2023-07-02T08:32:43;24.00;99.90
1594;DHT22;790;47.000;16.084;2023-07-02T08:35:10;24.20;99.90
1594;DHT22;790;47.000;16.084;2023-07-02T08:37:37;24.30;99.90
1594;DHT22;790;47.000;16.084;2023-07-02T08:40:09;24.50;99.90
1594;DHT22;790;47.000;16.084;2023-07-02T08:42:42;24.50;99.90
1594;DHT22;790;47.000;16.084;2023-07-02T08:45:10;24.60;99.90
1594;DHT22;790;47.000;16.084;2023-07-02T08:47:37;24.70;99.90
1594;DHT22;790;47.000;16.084;2023-07-02T08:50:06;24.90;99.90
1594;DHT22;790;47.000;16.084;2023-07-02T08:52:34;24.90;99.90
1594;DHT22;790;47.000;16.084;2023-07-02T08:55:01;24.90;99.90
1594;DHT22;790;47.000;16.084;2023-07-02T08:57:28;24.70;99.90
1594;DHT22;790;47.000;16.084;2023-07-02T08:59:55;24.60;99.90
1594;DHT22;790;47.000;16.084;2023-07-02T09:02:31;24.60;99.90
1594;DHT22;790;47.000;16.084;2023-07-02T09:05:03;24.60;99.90
1594;DHT22;790;47.000;16.084;2023-07-02T09:07:42;24.60;99.90
1594;DHT22;790;47.000;16.084;2023-07-02T09:10:10;24.60;99.90
1594;DHT22;790;47.000;16.084;2023-07-02T09:12:37;24.70;99.90
1594;DHT22;790;47.000;16.084;2023-07-02T09:15:06;24.80;99.90
1594;DHT22;790;47.000;16.084;2023-07-02T09:17:34;24.80;99.90
1594;DHT22;790;47.000;16.084;2023-07-02T09:20:04;24.80;99.90
1594;DHT22;790;47.000;16.084;2023-07-02T09:22:35;25.00;99.90
1594;DHT22;790;47.000;16.084;2023-07-02T09:25:03;25.10;99.90
1594;DHT22;790;47.000;16.084;2023-07-02T09:27:34;25.20;99.90
1594;DHT22;790;47.000;16.084;2023-07-02T09:30:07;25.20;99.90
1594;DHT22;790;47.000;16.084;2023-07-02T09:32:34;25.20;99.90
1594;DHT22;790;47.000;16.084;2023-07-02T09:35:01;25.10;99.90
1594;DHT22;790;47.000;16.084;2023-07-02T09:37:30;25.10;99.90
1594;DHT22;790;47.000;16.084;2023-07-02T09:40:00;25.10;99.90
1594;DHT22;790;47.000;16.084;2023-07-02T09:42:28;25.20;99.90
1594;DHT22;790;47.000;16.084;2023-07-02T09:44:58;25.30;99.90
1594;DHT22;790;47.000;16.084;2023-07-02T09:47:27;25.40;99.90
1594;DHT22;790;47.000;16.084;2023-07-02T09:49:59;25.40;99.90
1594;DHT22;790;47.000;16.084;2023-07-02T09:52:27;25.50;99.90
1594;DHT22;790;47.000;16.084;2023-07-02T09:54:54;25.60;99.90
1594;DHT22;790;47.000;16.084;2023-07-02T09:57:23;25.80;99.90
1594;DHT22;790;47.000;16.084;2023-07-02T09:59:50;26.10;99.90
1594;DHT22;790;47.000;16.084;2023-07-02T10:02:17;26.30;99.90
1594;DHT22;790;47.000;16.084;2023-07-02T10:04:46;26.40;99.90
1594;DHT22;790;47.000;16.084;2023-07-02T10:07:26;26.40;99.90
1594;DHT22;790;47.000;16.084;2023-07-02T10:09:53;26.40;99.90
1594;DHT22;790;47.000;16.084;2023-07-02T10:12:23;26.50;99.90
1594;DHT22;790;47.000;16.084;2023-07-02T10:14:52;26.50;99.90
1594;DHT22;790;47.000;16.084;2023-07-02T10:17:27;26.60;99.90
1594;DHT22;790;47.000;16.084;2023-07-02T10:19:57;26.70;99.90
1594;DHT22;790;47.000;16.084;2023-07-02T10:22:25;26.70;99.90
1594;DHT22;790;47.000;16.084;2023-07-02T10:24:55;26.70;99.90
1594;DHT22;790;47.000;16.084;2023-07-02T10:27:37;26.60;99.90
1594;DHT22;790;47.000;16.084;2023-07-02T10:30:06;26.70;99.90
1594;DHT22;790;47.000;16.084;2023-07-02T10:32:36;26.60;99.90
1594;DHT22;790;47.000;16.084;2023-07-02T10:35:13;26.60;99.90
1594;DHT22;790;47.000;16.084;2023-07-02T10:37:41;26.60;99.90
1594;DHT22;790;47.000;16.084;2023-07-02T10:40:09;26.70;99.90
1594;DHT22;790;47.000;16.084;2023-07-02T10:42:49;26.70;99.90
1594;DHT22;790;47.000;16.084;2023-07-02T10:45:17;26.70;99.90
1594;DHT22;790;47.000;16.084;2023-07-02T10:47:44;26.70;99.90
1594;DHT22;790;47.000;16.084;2023-07-02T10:50:16;26.80;99.90
1594;DHT22;790;47.000;16.084;2023-07-02T10:52:43;26.90;99.90
1594;DHT22;790;47.000;16.084;2023-07-02T10:55:16;26.90;99.90
1594;DHT22;790;47.000;16.084;2023-07-02T10:57:43;27.00;99.90
1594;DHT22;790;47.000;16.084;2023-07-02T11:00:13;27.10;99.90
1594;DHT22;790;47.000;16.084;2023-07-02T11:02:41;27.20;99.90
1594;DHT22;790;47.000;16.084;2023-07-02T11:05:08;27.30;99.90
1594;DHT22;790;47.000;16.084;2023-07-02T11:07:38;27.20;99.90
1594;DHT22;790;47.000;16.084;2023-07-02T11:10:07;27.20;99.90
1594;DHT22;790;47.000;16.084;2023-07-02T11:12:35;27.30;99.90
1594;DHT22;790;47.000;16.084;2023-07-02T11:15:19;27.30;99.90
1594;DHT22;790;47.000;16.084;2023-07-02T11:17:48;27.10;99.90
1594;DHT22;790;47.000;16.084;2023-07-02T11:20:16;27.10;99.90
1594;DHT22;790;47.000;16.084;2023-07-02T11:22:43;27.10;99.90
1594;DHT22;790;47.000;16.084;2023-07-02T11:25:13;27.00;99.90
1594;DHT22;790;47.000;16.084;2023-07-02T11:27:41;27.00;99.90
1594;DHT22;790;47.000;16.084;2023-07-02T11:30:09;27.10;99.90
1594;DHT22;790;47.000;16.084;2023-07-02T11:32:49;27.10;99.90
1594;DHT22;790;47.000;16.084;2023-07-02T11:35:17;27.00;99.90
1594;DHT22;790;47.000;16.084;2023-07-02T11:37:45;27.00;99.90
1594;DHT22;790;47.000;16.084;2023-07-02T11:40:16;26.90;99.90
1594;DHT22;790;47.000;16.084;2023-07-02T11:42:44;26.80;99.90
1594;DHT22;790;47.000;16.084;2023-07-02T11:45:11;26.70;99.90
1594;DHT22;790;47.000;16.084;2023-07-02T11:47:38;26.60;99.90
1594;DHT22;790;47.000;16.084;2023-07-02T11:50:08;26.60;99.90
1594;DHT22;790;47.000;16.084;2023-07-02T11:52:35;26.70;99.90
1594;DHT22;790;47.000;16.084;2023-07-02T11:55:03;27.00;99.90
1594;DHT22;790;47.000;16.084;2023-07-02T11:57:30;27.10;99.90
1594;DHT22;790;47.000;16.084;2023-07-02T11:59:58;27.20;99.90
1594;DHT22;790;47.000;16.084;2023-07-02T12:02:25;27.40;99.90
1594;DHT22;790;47.000;16.084;2023-07-02T12:04:53;27.60;99.90
1594;DHT22;790;47.000;16.084;2023-07-02T12:07:21;27.80;99.90
1594;DHT22;790;47.000;16.084;2023-07-02T12:09:48;27.90;99.90
1594;DHT22;790;47.000;16.084;2023-07-02T12:12:15;28.10;99.90
1594;DHT22;790;47.000;16.084;2023-07-02T12:14:42;28.10;99.90
1594;DHT22;790;47.000;16.084;2023-07-02T12:17:10;28.10;99.90
1594;DHT22;790;47.000;16.084;2023-07-02T12:19:39;28.10;99.90
1594;DHT22;790;47.000;16.084;2023-07-02T12:22:06;28.20;99.90
1594;DHT22;790;47.000;16.084;2023-07-02T12:24:35;28.10;99.90
1594;DHT22;790;47.000;16.084;2023-07-02T12:27:03;28.00;99.90
1594;DHT22;790;47.000;16.084;2023-07-02T12:29:30;28.20;99.90
1594;DHT22;790;47.000;16.084;2023-07-02T12:31:57;28.10;99.90
1594;DHT22;790;47.000;16.084;2023-07-02T12:34:24;28.10;99.90
1594;DHT22;790;47.000;16.084;2023-07-02T12:36:52;28.00;99.90
1594;DHT22;790;47.000;16.084;2023-07-02T12:39:20;28.00;99.90
1594;DHT22;790;47.000;16.084;2023-07-02T12:41:48;28.00;99.90
1594;DHT22;790;47.000;16.084;2023-07-02T12:44:16;27.80;99.90
1594;DHT22;790;47.000;16.084;2023-07-02T12:46:43;27.70;99.90
1594;DHT22;790;47.000;16.084;2023-07-02T12:49:10;27.40;99.90
1594;DHT22;790;47.000;16.084;2023-07-02T12:51:37;27.50;99.90
1594;DHT22;790;47.000;16.084;2023-07-02T12:54:04;27.30;99.90
1594;DHT22;790;47.000;16.084;2023-07-02T12:56:31;27.20;99.90
1594;DHT22;790;47.000;16.084;2023-07-02T12:59:01;27.10;99.90
1594;DHT22;790;47.000;16.084;2023-07-02T13:01:29;27.10;99.90
1594;DHT22;790;47.000;16.084;2023-07-02T13:03:56;27.10;99.90
1594;DHT22;790;47.000;16.084;2023-07-02T13:06:23;27.10;99.90
1594;DHT22;790;47.000;16.084;2023-07-02T13:08:50;27.00;99.90
1594;DHT22;790;47.000;16.084;2023-07-02T13:11:18;26.90;99.90
1594;DHT22;790;47.000;16.084;2023-07-02T13:13:46;26.80;99.90
1594;DHT22;790;47.000;16.084;2023-07-02T13:16:15;26.90;99.90
1594;DHT22;790;47.000;16.084;2023-07-02T13:18:42;26.90;99.90
1594;DHT22;790;47.000;16.084;2023-07-02T13:21:10;26.80;99.90
1594;DHT22;790;47.000;16.084;2023-07-02T13:23:37;26.90;99.90
1594;DHT22;790;47.000;16.084;2023-07-02T13:26:04;27.00;99.90
1594;DHT22;790;47.000;16.084;2023-07-02T13:28:32;26.90;99.90
1594;DHT22;790;47.000;16.084;2023-07-02T13:30:59;26.90;99.90
1594;DHT22;790;47.000;16.084;2023-07-02T13:33:27;26.80;99.90
1594;DHT22;790;47.000;16.084;2023-07-02T13:35:54;26.80;99.90
1594;DHT22;790;47.000;16.084;2023-07-02T13:38:22;26.70;99.90
1594;DHT22;790;47.000;16.084;2023-07-02T13:40:49;26.80;99.90
1594;DHT22;790;47.000;16.084;2023-07-02T13:43:16;26.80;99.90
1594;DHT22;790;47.000;16.084;2023-07-02T13:45:43;26.70;99.90
1594;DHT22;790;47.000;16.084;2023-07-02T13:48:10;26.60;99.90
1594;DHT22;790;47.000;16.084;2023-07-02T13:50:39;26.50;99.90
1594;DHT22;790;47.000;16.084;2023-07-02T13:53:07;26.40;99.90
1594;DHT22;790;47.000;16.084;2023-07-02T13:55:34;26.40;99.90
1594;DHT22;790;47.000;16.084;2023-07-02T13:58:01;26.40;99.90
1594;DHT22;790;47.000;16.084;2023-07-02T14:00:30;26.40;99.90
1594;DHT22;790;47.000;16.084;2023-07-02T14:02:57;26.30;99.90
1594;DHT22;790;47.000;16.084;2023-07-02T14:05:24;26.20;99.90
1594;DHT22;790;47.000;16.084;2023-07-02T14:07:51;26.30;99.90
1594;DHT22;790;47.000;16.084;2023-07-02T14:10:19;26.30;99.90
1594;DHT22;790;47.000;16.084;2023-07-02T14:12:46;26.30;99.90
1594;DHT22;790;47.000;16.084;2023-07-02T14:15:13;26.30;99.90
1594;DHT22;790;47.000;16.084;2023-07-02T14:17:42;26.40;99.90
1594;DHT22;790;47.000;16.084;2023-07-02T14:20:10;26.40;99.90
1594;DHT22;790;47.000;16.084;2023-07-02T14:22:37;26.60;99.90
1594;DHT22;790;47.000;16.084;2023-07-02T14:25:05;26.80;99.90
1594;DHT22;790;47.000;16.084;2023-07-02T14:27:32;26.90;99.90
1594;DHT22;790;47.000;16.084;2023-07-02T14:29:59;27.00;99.90
1594;DHT22;790;47.000;16.084;2023-07-02T14:32:33;27.20;99.90
1594;DHT22;790;47.000;16.084;2023-07-02T14:35:04;27.40;99.90
1594;DHT22;790;47.000;16.084;2023-07-02T14:37:31;27.50;99.90
1594;DHT22;790;47.000;16.084;2023-07-02T14:39:58;27.70;99.90
1594;DHT22;790;47.000;16.084;2023-07-02T14:42:26;27.90;99.90
1594;DHT22;790;47.000;16.084;2023-07-02T14:44:53;28.10;99.90
1594;DHT22;790;47.000;16.084;2023-07-02T14:47:20;28.10;99.90
1594;DHT22;790;47.000;16.084;2023-07-02T14:49:47;28.00;99.90
1594;DHT22;790;47.000;16.084;2023-07-02T14:52:15;28.00;99.90
1594;DHT22;790;47.000;16.084;2023-07-02T14:54:45;28.10;99.90
1594;DHT22;790;47.000;16.084;2023-07-02T14:57:12;28.10;99.90
1594;DHT22;790;47.000;16.084;2023-07-02T14:59:40;28.20;99.90
1594;DHT22;790;47.000;16.084;2023-07-02T15:02:08;28.00;99.90
1594;DHT22;790;47.000;16.084;2023-07-02T15:04:35;28.00;99.90
1594;DHT22;790;47.000;16.084;2023-07-02T15:07:02;28.10;99.90
1594;DHT22;790;47.000;16.084;2023-07-02T15:09:31;28.10;99.90
1594;DHT22;790;47.000;16.084;2023-07-02T15:11:58;28.10;99.90
1594;DHT22;790;47.000;16.084;2023-07-02T15:14:25;28.00;99.90
1594;DHT22;790;47.000;16.084;2023-07-02T15:16:52;28.00;99.90
1594;DHT22;790;47.000;16.084;2023-07-02T15:19:20;27.90;99.90
1594;DHT22;790;47.000;16.084;2023-07-02T15:21:49;27.90;99.90
1594;DHT22;790;47.000;16.084;2023-07-02T15:24:16;27.80;99.90
1594;DHT22;790;47.000;16.084;2023-07-02T15:26:45;27.70;99.90
1594;DHT22;790;47.000;16.084;2023-07-02T15:29:13;27.50;99.90
1594;DHT22;790;47.000;16.084;2023-07-02T15:31:40;27.40;99.90
1594;DHT22;790;47.000;16.084;2023-07-02T15:34:11;27.20;99.90
1594;DHT22;790;47.000;16.084;2023-07-02T15:36:41;27.10;99.90
1594;DHT22;790;47.000;16.084;2023-07-02T15:39:08;26.90;99.90
1594;DHT22;790;47.000;16.084;2023-07-02T15:41:36;26.80;99.90
1594;DHT22;790;47.000;16.084;2023-07-02T15:44:06;26.60;99.90
1594;DHT22;790;47.000;16.084;2023-07-02T15:46:33;26.50;99.90
1594;DHT22;790;47.000;16.084;2023-07-02T15:49:01;26.40;99.90
1594;DHT22;790;47.000;16.084;2023-07-02T15:51:28;26.30;99.90
1594;DHT22;790;47.000;16.084;2023-07-02T15:53:59;26.20;99.90
1594;DHT22;790;47.000;16.084;2023-07-02T15:56:26;26.20;99.90
1594;DHT22;790;47.000;16.084;2023-07-02T15:58:57;26.10;99.90
1594;DHT22;790;47.000;16.084;2023-07-02T16:01:26;26.10;99.90
1594;DHT22;790;47.000;16.084;2023-07-02T16:03:54;26.10;99.90
1594;DHT22;790;47.000;16.084;2023-07-02T16:06:22;26.20;99.90
1594;DHT22;790;47.000;16.084;2023-07-02T16:08:54;26.20;99.90